createdAt,value
2023-01-03T00:01:23.000Z,8.51
2023-01-03T00:03:49.893Z,9.04
2023-01-03T00:06:24.984Z,8.83
2023-01-03T00:08:53.097Z,8.85
2023-01-03T00:11:43.103Z,8.82
2023-01-03T00:14:11.066Z,8.77
2023-01-03T00:16:37.890Z,8.31
2023-01-03T00:19:09.795Z,8.89
2023-01-03T00:21:36.355Z,8.88
2023-01-03T00:24:02.761Z,8.45
2023-01-03T00:26:29.242Z,8.50
2023-01-03T00:28:55.949Z,8.52
2023-01-03T00:31:22.658Z,8.56
2023-01-03T00:33:49.110Z,8.47
2023-01-03T00:36:15.858Z,8.22
2023-01-03T00:38:42.579Z,8.17
2023-01-03T00:41:11.402Z,8.51
2023-01-03T00:43:38.688Z,8.58
2023-01-03T00:46:06.509Z,8.63
2023-01-03T00:48:33.623Z,8.46
2023-01-03T00:51:10.978Z,8.45
2023-01-03T00:53:38.967Z,8.69
2023-01-03T00:56:15.951Z,8.98
2023-01-03T00:58:42.760Z,8.66
2023-01-03T01:01:14.676Z,8.86
2023-01-03T01:03:47.733Z,9.03
2023-01-03T01:06:23.658Z,8.81
2023-01-03T01:08:52.130Z,8.53
2023-01-03T01:11:19.440Z,8.61
2023-01-03T01:13:46.933Z,8.54
2023-01-03T01:16:15.820Z,8.46
2023-01-03T01:18:44.849Z,8.16
2023-01-03T01:21:16.404Z,8.79
2023-01-03T01:23:43.394Z,8.60
2023-01-03T01:26:13.183Z,8.74
2023-01-03T01:28:39.850Z,8.15
2023-01-03T01:31:07.059Z,8.55
2023-01-03T01:33:35.627Z,8.38
2023-01-03T01:36:07.594Z,8.53
2023-01-03T01:38:34.095Z,8.59
2023-01-03T01:41:00.699Z,8.26
2023-01-03T01:43:45.717Z,8.39
2023-01-03T01:46:20.835Z,8.52
2023-01-03T01:48:51.819Z,8.47
2023-01-03T01:51:20.617Z,8.29
2023-01-03T01:53:47.137Z,8.21
2023-01-03T01:56:18.550Z,8.41
2023-01-03T01:58:47.924Z,8.47
2023-01-03T02:01:17.449Z,8.24
2023-01-03T02:03:50.986Z,8.26
2023-01-03T02:06:18.764Z,8.15
2023-01-03T02:08:45.180Z,8.25
2023-01-03T02:11:24.915Z,8.29
2023-01-03T02:14:11.294Z,8.05
2023-01-03T02:16:59.041Z,8.15
2023-01-03T02:19:40.725Z,8.18
2023-01-03T02:22:10.077Z,8.05
2023-01-03T02:25:00.611Z,8.16
2023-01-03T02:27:29.906Z,8.02
2023-01-03T02:30:34.235Z,8.19
2023-01-03T02:33:32.888Z,8.14
2023-01-03T02:36:21.264Z,8.17
2023-01-03T02:39:01.006Z,7.89
2023-01-03T02:42:12.874Z,7.80
2023-01-03T02:44:58.332Z,7.82
2023-01-03T02:47:29.366Z,7.90
2023-01-03T02:49:59.894Z,8.03
2023-01-03T02:52:30.700Z,7.78
2023-01-03T02:55:05.070Z,7.98
2023-01-03T02:57:42.663Z,7.91
2023-01-03T03:00:13.974Z,7.63
2023-01-03T03:02:45.956Z,7.83
2023-01-03T03:05:22.288Z,7.69
2023-01-03T03:07:48.823Z,7.54
2023-01-03T03:10:34.145Z,7.52
2023-01-03T03:13:24.691Z,7.62
2023-01-03T03:16:10.591Z,7.69
2023-01-03T03:18:59.810Z,7.80
2023-01-03T03:21:52.874Z,7.69
2023-01-03T03:24:47.698Z,7.93
2023-01-03T03:27:36.477Z,7.67
2023-01-03T03:30:05.510Z,7.54
2023-01-03T03:32:35.239Z,7.67
2023-01-03T03:35:04.766Z,7.90
2023-01-03T03:37:42.855Z,7.65
2023-01-03T03:40:29.158Z,7.41
2023-01-03T03:43:34.806Z,7.48
2023-01-03T03:46:10.129Z,7.52
2023-01-03T03:49:01.212Z,7.50
2023-01-03T03:51:32.886Z,7.28
2023-01-03T03:54:04.607Z,7.31
2023-01-03T03:56:33.567Z,7.23
2023-01-03T03:59:06.158Z,7.25
2023-01-03T04:01:34.828Z,7.26
2023-01-03T04:04:07.829Z,7.26
2023-01-03T04:06:41.445Z,7.44
2023-01-03T04:09:08.835Z,7.08
2023-01-03T04:11:35.702Z,7.18
2023-01-03T04:14:02.179Z,7.04
2023-01-03T04:16:28.652Z,6.93
2023-01-03T04:18:55.167Z,7.01
2023-01-03T04:21:21.574Z,7.03
2023-01-03T04:23:48.612Z,7.29
2023-01-03T04:26:15.299Z,7.11
2023-01-03T04:28:44.870Z,6.94
2023-01-03T04:31:11.328Z,7.18
2023-01-03T04:33:37.911Z,6.85
2023-01-03T04:36:04.552Z,6.97
2023-01-03T04:38:31.054Z,6.99
2023-01-03T04:41:04.295Z,7.09
2023-01-03T04:43:49.280Z,7.28
2023-01-03T04:46:16.037Z,6.90
2023-01-03T04:48:42.535Z,6.98
2023-01-03T04:51:09.058Z,6.87
2023-01-03T04:53:35.478Z,6.86
2023-01-03T04:56:02.023Z,7.19
2023-01-03T04:58:28.456Z,7.19
2023-01-03T05:01:08.014Z,7.30
2023-01-03T05:03:35.802Z,7.14
2023-01-03T05:06:08.940Z,7.12
2023-01-03T05:08:39.394Z,6.89
2023-01-03T05:11:07.420Z,7.04
2023-01-03T05:13:34.191Z,6.64
2023-01-03T05:16:09.124Z,6.88
2023-01-03T05:18:35.703Z,7.02
2023-01-03T05:21:27.356Z,6.86
2023-01-03T05:24:32.421Z,7.12
2023-01-03T05:27:01.747Z,7.04
2023-01-03T05:29:29.364Z,6.83
2023-01-03T05:31:56.303Z,6.63
2023-01-03T05:34:22.781Z,6.85
2023-01-03T05:36:49.215Z,6.78
2023-01-03T05:39:40.510Z,7.20
2023-01-03T05:42:07.118Z,7.06
2023-01-03T05:44:34.761Z,6.93
2023-01-03T05:47:03.446Z,7.11
2023-01-03T05:49:29.943Z,7.12
2023-01-03T05:51:56.394Z,7.00
2023-01-03T05:54:48.745Z,7.09
2023-01-03T05:57:15.154Z,6.89
2023-01-03T05:59:41.596Z,6.80
2023-01-03T06:02:09.233Z,7.11
2023-01-03T06:04:35.872Z,6.89
2023-01-03T06:07:02.387Z,7.25
2023-01-03T06:09:28.818Z,6.97
2023-01-03T06:11:55.298Z,6.96
2023-01-03T06:14:21.750Z,7.16
2023-01-03T06:17:11.018Z,7.25
2023-01-03T06:19:37.505Z,7.04
2023-01-03T06:22:10.148Z,6.95
2023-01-03T06:24:44.170Z,7.04
2023-01-03T06:27:10.586Z,6.81
2023-01-03T06:29:37.097Z,6.73
2023-01-03T06:32:08.866Z,6.50
2023-01-03T06:34:36.061Z,6.76
2023-01-03T06:37:02.465Z,6.65
2023-01-03T06:39:28.857Z,6.84
2023-01-03T06:41:55.384Z,6.78
2023-01-03T06:44:21.881Z,6.37
2023-01-03T06:47:06.901Z,6.41
2023-01-03T06:49:51.795Z,6.62
2023-01-03T06:52:36.669Z,6.63
2023-01-03T06:55:04.380Z,6.62
2023-01-03T06:57:30.775Z,6.31
2023-01-03T06:59:57.186Z,6.43
2023-01-03T07:02:23.757Z,6.68
2023-01-03T07:05:00.594Z,6.48
2023-01-03T07:07:27.027Z,6.59
2023-01-03T07:09:53.437Z,6.75
2023-01-03T07:12:38.385Z,6.41
2023-01-03T07:15:05.676Z,6.00
2023-01-03T07:17:32.095Z,6.18
2023-01-03T07:19:58.567Z,6.28
2023-01-03T07:22:25.001Z,6.01
2023-01-03T07:24:51.403Z,5.83
2023-01-03T07:27:17.822Z,5.96
2023-01-03T07:29:44.254Z,6.45
2023-01-03T07:32:12.668Z,6.41
2023-01-03T07:34:39.068Z,6.03
2023-01-03T07:37:21.809Z,6.00
2023-01-03T07:39:48.232Z,6.23
2023-01-03T07:42:33.207Z,6.30
2023-01-03T07:44:59.592Z,6.32
2023-01-03T07:47:35.200Z,6.40
2023-01-03T07:50:01.597Z,6.16
2023-01-03T07:52:28.089Z,6.11
2023-01-03T07:54:57.531Z,6.12
2023-01-03T07:57:24.056Z,5.90
2023-01-03T07:59:50.433Z,6.21
2023-01-03T08:02:17.018Z,6.38
2023-01-03T08:04:43.654Z,6.05
2023-01-03T08:07:24.385Z,6.12
2023-01-03T08:10:09.530Z,6.10
2023-01-03T08:12:54.570Z,5.96
2023-01-03T08:15:20.971Z,6.04
2023-01-03T08:17:47.394Z,5.96
2023-01-03T08:20:15.421Z,6.06
2023-01-03T08:22:41.880Z,6.27
2023-01-03T08:25:08.771Z,6.28
2023-01-03T08:27:35.219Z,5.84
2023-01-03T08:30:01.630Z,6.07
2023-01-03T08:32:30.899Z,6.44
2023-01-03T08:34:58.075Z,6.30
2023-01-03T08:37:24.681Z,6.35
2023-01-03T08:39:59.352Z,6.39
2023-01-03T08:42:31.227Z,6.37
2023-01-03T08:45:01.700Z,6.22
2023-01-03T08:47:31.321Z,6.01
2023-01-03T08:49:59.611Z,5.89
2023-01-03T08:52:33.116Z,5.92
2023-01-03T08:55:06.177Z,6.05
2023-01-03T08:57:34.757Z,5.97
2023-01-03T09:00:06.874Z,5.74
2023-01-03T09:02:35.770Z,5.75
2023-01-03T09:05:02.498Z,6.05
2023-01-03T09:07:34.882Z,6.18
2023-01-03T09:10:06.960Z,6.01
2023-01-03T09:12:34.461Z,6.27
2023-01-03T09:15:12.131Z,6.39
2023-01-03T09:17:44.225Z,6.05
2023-01-03T09:20:19.161Z,6.58
2023-01-03T09:22:49.596Z,6.63
2023-01-03T09:25:20.051Z,6.47
2023-01-03T09:27:49.854Z,6.56
2023-01-03T09:30:28.401Z,6.41
2023-01-03T09:32:59.797Z,6.47
2023-01-03T09:35:34.428Z,6.35
2023-01-03T09:38:10.278Z,6.72
2023-01-03T09:40:45.179Z,6.78
2023-01-03T09:43:32.021Z,6.91
2023-01-03T09:46:18.298Z,6.86
2023-01-03T09:48:56.187Z,6.79
2023-01-03T09:51:54.799Z,6.95
2023-01-03T09:54:57.068Z,7.08
2023-01-03T09:57:54.148Z,7.10
2023-01-03T10:00:55.046Z,7.24
2023-01-03T10:03:51.506Z,7.33
2023-01-03T10:06:30.909Z,7.29
2023-01-03T10:09:22.466Z,7.31
2023-01-03T10:11:54.894Z,7.35
2023-01-03T10:14:41.357Z,7.32
2023-01-03T10:17:43.840Z,7.30
2023-01-03T10:20:42.842Z,7.25
2023-01-03T10:23:10.272Z,7.22
2023-01-03T10:25:39.926Z,7.04
2023-01-03T10:28:17.263Z,7.20
2023-01-03T10:31:10.671Z,7.42
2023-01-03T10:33:45.439Z,7.23
2023-01-03T10:36:16.267Z,7.29
2023-01-03T10:38:51.587Z,7.19
2023-01-03T10:41:42.142Z,7.01
2023-01-03T10:44:31.320Z,6.94
2023-01-03T10:47:09.126Z,7.03
2023-01-03T10:49:35.681Z,7.15
2023-01-03T10:52:23.022Z,7.35
2023-01-03T10:55:03.341Z,7.66
2023-01-03T10:57:48.234Z,7.42
2023-01-03T11:00:21.182Z,7.52
2023-01-03T11:02:48.218Z,7.44
2023-01-03T11:05:23.893Z,7.49
2023-01-03T11:07:56.557Z,7.40
2023-01-03T11:10:56.190Z,7.46
2023-01-03T11:13:41.647Z,7.44
2023-01-03T11:16:17.317Z,7.44
2023-01-03T11:18:58.298Z,7.42
2023-01-03T11:21:51.414Z,7.62
2023-01-03T11:24:49.466Z,7.57
2023-01-03T11:27:27.850Z,7.66
2023-01-03T11:30:08.718Z,7.73
2023-01-03T11:32:39.311Z,7.73
2023-01-03T11:35:46.324Z,7.78
2023-01-03T11:38:15.696Z,7.77
2023-01-03T11:41:08.515Z,7.66
2023-01-03T11:44:03.075Z,7.82
2023-01-03T11:46:51.284Z,7.89
2023-01-03T11:50:01.942Z,7.90
2023-01-03T11:52:42.554Z,7.70
2023-01-03T11:55:34.053Z,7.79
2023-01-03T11:58:15.674Z,7.76
2023-01-03T12:01:29.919Z,8.01
2023-01-03T12:04:27.130Z,7.65
2023-01-03T12:07:48.698Z,7.80
2023-01-03T12:10:37.179Z,7.94
2023-01-03T12:13:03.521Z,7.93
2023-01-03T12:15:42.457Z,7.82
2023-01-03T12:18:41.394Z,7.76
2023-01-03T12:21:17.750Z,7.76
2023-01-03T12:23:50.249Z,7.62
2023-01-03T12:26:25.281Z,7.62
2023-01-03T12:29:00.033Z,7.64
2023-01-03T12:32:13.020Z,7.87
2023-01-03T12:34:39.410Z,7.87
2023-01-03T12:37:14.775Z,7.52
2023-01-03T12:39:56.717Z,7.95
2023-01-03T12:42:45.173Z,7.83
2023-01-03T12:45:34.826Z,7.79
2023-01-03T12:48:13.512Z,7.68
2023-01-03T12:50:39.865Z,7.78
2023-01-03T12:53:13.305Z,7.76
2023-01-03T12:56:01.502Z,7.61
2023-01-03T12:58:43.781Z,7.67
2023-01-03T13:01:15.798Z,7.73
2023-01-03T13:03:49.204Z,7.61
2023-01-03T13:06:23.842Z,7.54
2023-01-03T13:08:58.094Z,7.73
2023-01-03T13:11:50.270Z,7.78
2023-01-03T13:14:26.467Z,7.79
2023-01-03T13:16:54.548Z,7.60
2023-01-03T13:19:23.745Z,7.74
2023-01-03T13:21:59.164Z,7.77
2023-01-03T13:25:04.391Z,7.55
2023-01-03T13:27:36.154Z,7.57
2023-01-03T13:30:17.485Z,7.43
2023-01-03T13:33:05.744Z,7.53
2023-01-03T13:35:37.069Z,7.83
2023-01-03T13:38:24.094Z,7.57
2023-01-03T13:41:17.012Z,7.23
2023-01-03T13:43:40.434Z,7.39
2023-01-03T13:46:22.609Z,7.41
2023-01-03T13:49:20.265Z,7.64
2023-01-03T13:51:51.650Z,7.33
2023-01-03T13:54:18.579Z,7.36
2023-01-03T13:56:44.992Z,7.29
2023-01-03T13:59:22.251Z,7.12
2023-01-03T14:01:58.004Z,7.36
2023-01-03T14:04:36.853Z,7.25
2023-01-03T14:07:30.993Z,7.30
2023-01-03T14:10:12.559Z,7.31
2023-01-03T14:13:21.290Z,7.27
2023-01-03T14:15:49.268Z,7.26
2023-01-03T14:18:26.921Z,7.30
2023-01-03T14:20:57.029Z,7.13
2023-01-03T14:26:16.544Z,7.28
2023-01-03T14:28:47.795Z,7.31
2023-01-03T14:31:20.074Z,7.46
2023-01-03T14:33:54.728Z,7.20
2023-01-03T14:36:21.624Z,7.41
2023-01-03T14:38:55.630Z,7.54
2023-01-03T14:41:37.577Z,7.43
2023-01-03T14:44:09.727Z,7.51
2023-01-03T14:46:37.998Z,7.31
2023-01-03T14:49:19.767Z,7.50
2023-01-03T14:51:46.461Z,7.37
2023-01-03T14:54:20.407Z,7.51
2023-01-03T14:56:48.676Z,7.30
2023-01-03T14:59:19.405Z,7.45
2023-01-03T15:01:46.751Z,7.24
2023-01-03T15:04:15.116Z,7.04
2023-01-03T15:07:09.334Z,7.23
2023-01-03T15:09:39.288Z,6.92
2023-01-03T15:12:13.698Z,7.00
2023-01-03T15:14:40.164Z,7.05
2023-01-03T15:17:16.246Z,7.11
2023-01-03T15:20:06.823Z,7.19
2023-01-03T15:22:42.617Z,7.12
2023-01-03T15:25:21.808Z,6.87
2023-01-03T15:27:50.444Z,7.06
2023-01-03T15:30:24.853Z,6.85
2023-01-03T15:33:34.257Z,6.76
2023-01-03T15:36:05.366Z,6.97
2023-01-03T15:39:00.586Z,6.95
2023-01-03T15:42:00.177Z,6.95
2023-01-03T15:44:37.475Z,6.83
2023-01-03T15:47:07.486Z,6.99
2023-01-03T15:49:49.458Z,6.83
2023-01-03T15:52:16.849Z,6.86
2023-01-03T15:54:44.903Z,6.83
2023-01-03T15:57:16.385Z,6.95
2023-01-03T15:59:44.195Z,6.69
2023-01-03T16:02:19.610Z,6.78
2023-01-03T16:04:47.448Z,6.62
2023-01-03T16:07:20.375Z,6.82
2023-01-03T16:09:46.987Z,6.67
2023-01-03T16:12:19.519Z,6.97
2023-01-03T16:14:51.318Z,6.86
2023-01-03T16:17:25.266Z,6.79
2023-01-03T16:19:53.127Z,6.68
2023-01-03T16:22:37.197Z,6.81
2023-01-03T16:25:13.477Z,6.73
2023-01-03T16:27:39.896Z,6.56
2023-01-03T16:30:07.002Z,6.55
2023-01-03T16:32:33.846Z,6.66
2023-01-03T16:35:12.417Z,6.18
2023-01-03T16:37:39.935Z,6.52
2023-01-03T16:40:15.865Z,6.51
2023-01-03T16:42:42.285Z,6.36
2023-01-03T16:45:10.865Z,6.54
2023-01-03T16:47:37.862Z,6.49
2023-01-03T16:50:07.773Z,6.56
2023-01-03T16:52:37.365Z,6.48
2023-01-03T16:55:19.917Z,6.48
2023-01-03T16:57:50.407Z,6.60
2023-01-03T17:00:25.705Z,6.69
2023-01-03T17:02:52.497Z,6.46
2023-01-03T17:05:19.116Z,6.59
2023-01-03T17:07:48.642Z,6.57
2023-01-03T17:10:32.911Z,6.52
2023-01-03T17:13:04.088Z,6.41
2023-01-03T17:15:42.810Z,6.28
2023-01-03T17:18:19.447Z,6.44
2023-01-03T17:21:01.292Z,6.40
2023-01-03T17:23:32.333Z,6.20
2023-01-03T17:25:58.784Z,6.41
2023-01-03T17:28:25.273Z,6.19
2023-01-03T17:30:56.664Z,6.31
2023-01-03T17:33:34.016Z,6.33
2023-01-03T17:36:01.245Z,6.34
2023-01-03T17:38:31.202Z,6.14
2023-01-03T17:41:01.948Z,6.14
2023-01-03T17:43:28.808Z,5.92
2023-01-03T17:46:22.944Z,6.36
2023-01-03T17:49:26.967Z,6.45
2023-01-03T17:51:58.793Z,6.14
2023-01-03T17:54:29.258Z,6.30
2023-01-03T17:56:59.268Z,6.55
2023-01-03T17:59:28.200Z,6.15
2023-01-03T18:02:17.294Z,6.15
2023-01-03T18:05:14.688Z,6.26
2023-01-03T18:07:34.353Z,5.97
2023-01-03T18:10:01.926Z,6.02
2023-01-03T18:12:31.531Z,6.03
2023-01-03T18:14:58.037Z,5.98
2023-01-03T18:17:30.249Z,5.93
2023-01-03T18:19:59.281Z,5.75
2023-01-03T18:22:27.024Z,6.23
2023-01-03T18:24:57.740Z,6.18
2023-01-03T18:27:39.659Z,6.32
2023-01-03T18:30:15.059Z,6.05
2023-01-03T18:32:46.695Z,5.97
2023-01-03T18:35:19.323Z,6.12
2023-01-03T18:37:54.338Z,6.06
2023-01-03T18:40:28.337Z,6.04
2023-01-03T18:43:13.942Z,5.82
2023-01-03T18:45:41.869Z,5.81
2023-01-03T18:48:21.450Z,5.92
2023-01-03T18:50:57.445Z,5.73
2023-01-03T18:53:28.530Z,5.73
2023-01-03T18:56:27.140Z,5.96
2023-01-03T18:59:06.398Z,5.90
2023-01-03T19:01:38.011Z,5.73
2023-01-03T19:04:08.913Z,5.91
2023-01-03T19:06:41.556Z,6.00
2023-01-03T19:09:21.699Z,6.02
2023-01-03T19:11:48.450Z,5.83
2023-01-03T19:14:14.911Z,5.82
2023-01-03T19:16:42.558Z,5.81
2023-01-03T19:19:10.332Z,5.79
2023-01-03T19:21:40.770Z,5.98
2023-01-03T19:24:38.108Z,5.93
2023-01-03T19:27:28.622Z,5.91
2023-01-03T19:30:00.532Z,5.78
2023-01-03T19:32:29.514Z,5.95
2023-01-03T19:34:56.062Z,5.77
2023-01-03T19:37:37.705Z,6.04
2023-01-03T19:40:04.573Z,5.97
2023-01-03T19:42:49.152Z,5.85
2023-01-03T19:45:22.044Z,6.10
2023-01-03T19:47:48.651Z,5.95
2023-01-03T19:50:22.091Z,6.01
2023-01-03T19:52:48.809Z,6.08
2023-01-03T19:55:16.546Z,6.04
2023-01-03T19:57:46.848Z,6.49
2023-01-03T20:00:22.782Z,6.17
2023-01-03T20:02:52.650Z,6.08
2023-01-03T20:05:25.610Z,5.94
2023-01-03T20:07:53.236Z,6.06
2023-01-03T20:10:25.244Z,5.81
2023-01-03T20:12:57.667Z,5.83
2023-01-03T20:15:28.828Z,5.83
2023-01-03T20:17:56.593Z,5.94
2023-01-03T20:20:27.394Z,5.59
2023-01-03T20:23:06.246Z,5.76
2023-01-03T20:25:35.264Z,6.18
2023-01-03T20:28:02.060Z,5.61
2023-01-03T20:30:41.972Z,5.61
2023-01-03T20:33:08.428Z,5.54
2023-01-03T20:38:25.179Z,5.01
2023-01-03T20:40:57.829Z,4.79
2023-01-03T20:43:24.873Z,4.62
2023-01-03T20:46:11.466Z,4.77
2023-01-03T20:48:38.002Z,4.49
2023-01-03T20:51:04.597Z,4.45
2023-01-03T20:53:42.560Z,4.39
2023-01-03T20:56:11.916Z,4.32
2023-01-03T20:58:39.148Z,4.19
2023-01-03T21:01:07.796Z,4.09
2023-01-03T21:03:36.596Z,4.09
2023-01-03T21:06:13.470Z,3.98
2023-01-03T21:08:55.392Z,4.31
2023-01-03T21:11:27.855Z,3.98
2023-01-03T21:13:55.905Z,4.10
2023-01-03T21:16:27.183Z,4.04
2023-01-03T21:18:53.819Z,3.96
2023-01-03T21:21:25.696Z,3.89
2023-01-03T21:23:54.157Z,3.91
2023-01-03T21:26:20.700Z,3.94
2023-01-03T21:28:48.329Z,3.99
2023-01-03T21:31:21.314Z,3.81
2023-01-03T21:33:47.955Z,3.67
2023-01-03T21:36:23.251Z,3.76
2023-01-03T21:38:50.341Z,3.66
2023-01-03T21:41:22.008Z,3.75
2023-01-03T21:43:48.525Z,3.85
2023-01-03T21:46:17.841Z,3.99
2023-01-03T21:48:44.480Z,4.00
2023-01-03T21:51:12.836Z,3.92
2023-01-03T21:53:39.694Z,3.89
2023-01-03T21:56:19.248Z,4.09
2023-01-03T21:58:45.742Z,4.06
2023-01-03T22:01:15.310Z,4.03
2023-01-03T22:04:00.682Z,3.97
2023-01-03T22:06:27.525Z,4.11
2023-01-03T22:08:54.639Z,4.13
2023-01-03T22:11:21.693Z,3.94
2023-01-03T22:13:51.190Z,3.89
2023-01-03T22:16:18.325Z,4.01
2023-01-03T22:18:44.800Z,3.89
2023-01-03T22:21:21.751Z,3.95
2023-01-03T22:23:48.155Z,3.82
2023-01-03T22:26:16.241Z,4.32
2023-01-03T22:28:46.990Z,4.36
2023-01-03T22:31:16.123Z,4.28
2023-01-03T22:33:43.204Z,3.98
2023-01-03T22:36:10.490Z,3.90
2023-01-03T22:38:38.088Z,3.92
2023-01-03T22:41:18.362Z,3.90
2023-01-03T22:43:45.523Z,3.73
2023-01-03T22:46:15.197Z,3.85
2023-01-03T22:48:42.722Z,3.66
2023-01-03T22:51:12.240Z,3.82
2023-01-03T22:53:40.619Z,3.54
2023-01-03T22:56:09.084Z,3.36
2023-01-03T22:58:36.982Z,3.56
2023-01-03T23:01:28.070Z,3.46
2023-01-03T23:03:59.811Z,3.51
2023-01-03T23:06:30.923Z,3.37
2023-01-03T23:08:57.726Z,3.20
2023-01-03T23:11:44.537Z,3.18
2023-01-03T23:14:32.577Z,2.93
2023-01-03T23:17:19.707Z,2.67
2023-01-03T23:19:46.173Z,2.40
2023-01-03T23:22:12.563Z,2.43
2023-01-03T23:24:38.973Z,2.28
2023-01-03T23:27:05.441Z,2.44
2023-01-03T23:29:31.885Z,2.83
2023-01-03T23:31:58.368Z,2.60
2023-01-03T23:34:24.780Z,2.35
2023-01-03T23:36:54.295Z,2.40
2023-01-03T23:39:20.701Z,2.34
2023-01-03T23:41:47.247Z,2.31
2023-01-03T23:44:14.137Z,2.10
2023-01-03T23:46:41.222Z,1.99
2023-01-03T23:49:07.695Z,2.00
2023-01-03T23:51:34.148Z,2.01
2023-01-03T23:54:00.579Z,2.04
2023-01-03T23:56:27.080Z,1.91
2023-01-03T23:58:53.556Z,1.92
